Aérodrome :
LOGIN :

S'inscrire | Disclaimer

   EN    FR    IT 

 










Légende :    VFR   VFR Marginal   IFR   IFR Intensif   IFR Très Intensif
Visi : 
Plafond : 
>= 8 km
>= 3000ft
5 à 8 km
1000 à 3000 ft
1500m à 5 km
500 à 1000 ft
800 à 1500m
200 à 500 ft
< 800m
< 200 ft
Symboles :   Orages  Brouillard  Fortes neiges  Fortes précipitations  Vent > 20 kt
SIGMETs :   Divers  Orages  Givrage  Turbulence  Onde Orograph.  Cendres Volcan.






- Altitude de l'aérodrome : 1895 ft


LSMM - Meiringen

DERNIER METAR :
  • 050250Z AUTO 10004KT 060V120 3300NDV -SN SCT002 SCT013 OVC019 00/00 Q0994 RMK

METARs EXPIRÉS :
  • 050220Z AUTO 00000KT 2300NDV -SN FEW001 BKN006 OVC013 00/00 Q0995 RMK
  • 050150Z AUTO VRB02KT 1800NDV -SN FEW002 BKN005 OVC007 00/00 Q0994 RESN RMK
  • 050120Z AUTO 00000KT 1900NDV SN FEW003 SCT005 BKN007 00/00 Q0993 RMK
  • 050050Z AUTO VRB02KT 1900NDV SN FEW002 BKN005 00/00 Q0992 RMK
  • 050020Z AUTO 00000KT 2100NDV -SN FEW003 BKN006 BKN008 00/00 Q0992 RMK

Prévision TAF périmée.



MET'MAP, la Météo Aéronautique d'un coup d'oeil ! - Copyright ORBIFLY Décembre 2007 - Disclaimer

ORBIFLY MET'MAP TEAM :

Programmation & Développement : Alexandra Zaïnal
Sur une idée originale de : Baudouin d'Aumeries
Assistance à la programmation : Marc-Olivier Méhu
Soutien technique & logistique : Manuel Goepfert

Contact : metmap@orbifly.com




SOURCES & CREDITS :

   NOAA